createdAt,value
2019-03-02T00:33:38.772Z,19.63
2019-03-02T00:37:01.617Z,9.43
2019-03-02T00:39:50.711Z,12.57
2019-03-02T00:45:32.699Z,16.33
2019-03-02T00:48:25.903Z,5.00
2019-03-02T00:54:33.812Z,3.40
2019-03-02T00:57:03.011Z,11.57
2019-03-02T01:00:03.184Z,6.23
2019-03-02T01:03:16.877Z,3.53
2019-03-02T01:05:51.253Z,5.20
2019-03-02T01:08:37.459Z,3.73
2019-03-02T01:11:46.537Z,10.53
2019-03-02T01:14:15.346Z,3.80
2019-03-02T01:16:59.696Z,5.10
2019-03-02T01:22:29.385Z,5.90
2019-03-02T01:31:08.756Z,2.80
2019-03-02T01:33:40.498Z,6.67
2019-03-02T01:36:34.218Z,6.50
2019-03-02T01:39:17.075Z,8.40
2019-03-02T01:42:39.093Z,5.13
2019-03-02T01:44:57.150Z,5.07
2019-03-02T01:47:39.335Z,4.00
2019-03-02T01:50:14.354Z,12.40
2019-03-02T01:52:48.089Z,7.10
2019-03-02T01:55:15.179Z,5.53
2019-03-02T02:00:10.477Z,5.60
2019-03-02T02:02:54.652Z,6.30
2019-03-02T02:05:33.086Z,11.13
2019-03-02T02:07:58.821Z,17.53
2019-03-02T02:11:31.085Z,7.93
2019-03-02T02:13:11.717Z,9.63
2019-03-02T02:16:07.868Z,12.53
2019-03-02T02:18:44.764Z,13.27
2019-03-02T02:21:41.849Z,12.47
2019-03-02T02:24:13.701Z,12.53
2019-03-02T02:26:47.816Z,17.57
2019-03-02T02:32:23.396Z,13.93
2019-03-02T02:34:39.658Z,14.40
2019-03-02T02:37:37.119Z,25.30
2019-03-02T02:40:35.486Z,16.27
2019-03-02T02:43:21.034Z,18.93
2019-03-02T02:46:20.065Z,20.33
2019-03-02T02:48:53.153Z,21.50
2019-03-02T02:51:44.599Z,20.60
2019-03-02T02:54:25.731Z,23.13
2019-03-02T02:56:45.649Z,27.93
2019-03-02T02:59:55.432Z,20.97
2019-03-02T03:02:28.910Z,25.83
2019-03-02T03:05:39.674Z,25.43
2019-03-02T03:08:20.884Z,27.07
2019-03-02T03:11:01.455Z,36.03
2019-03-02T03:16:16.511Z,27.67
2019-03-02T03:22:10.878Z,25.67
2019-03-02T03:25:04.004Z,37.47
2019-03-02T03:27:57.100Z,30.93
2019-03-02T03:30:39.763Z,30.10
2019-03-02T03:33:10.386Z,29.97
2019-03-02T03:36:08.014Z,29.20
2019-03-02T03:38:32.143Z,32.77
2019-03-02T03:41:44.701Z,34.70
2019-03-02T03:44:25.515Z,33.33
2019-03-02T03:46:50.165Z,31.10
2019-03-02T03:55:19.351Z,33.07
2019-03-02T04:00:47.248Z,31.43
2019-03-02T04:03:21.094Z,31.97
2019-03-02T04:06:32.329Z,28.07
2019-03-02T04:09:51.175Z,47.43
2019-03-02T04:12:29.393Z,31.97
2019-03-02T04:14:31.192Z,30.27
2019-03-02T04:16:35.081Z,37.43
2019-03-02T04:19:04.103Z,29.03
2019-03-02T04:21:08.316Z,34.47
2019-03-02T04:23:12.107Z,30.07
2019-03-02T04:25:18.102Z,26.40
2019-03-02T04:27:21.582Z,26.47
2019-03-02T04:29:25.364Z,35.43
2019-03-02T04:31:29.147Z,35.40
2019-03-02T04:33:32.984Z,26.70
2019-03-02T04:35:36.847Z,27.33
2019-03-02T04:37:40.728Z,26.10
2019-03-02T04:40:02.641Z,25.53
2019-03-02T04:42:06.431Z,24.73
2019-03-02T04:44:30.807Z,26.20
2019-03-02T04:46:54.415Z,27.90
2019-03-02T04:49:17.517Z,22.80
2019-03-02T04:51:40.546Z,21.07
2019-03-02T04:54:03.555Z,22.53
2019-03-02T04:56:26.566Z,23.23
2019-03-02T04:58:49.593Z,25.73
2019-03-02T05:01:12.683Z,26.30
2019-03-02T05:03:35.688Z,25.70
2019-03-02T05:05:58.745Z,31.40
2019-03-02T05:08:21.760Z,26.50
2019-03-02T05:10:44.790Z,28.67
2019-03-02T05:13:08.072Z,25.27
2019-03-02T05:15:16.246Z,34.43
2019-03-02T05:17:39.727Z,27.93
2019-03-02T05:20:04.815Z,27.33
2019-03-02T05:22:27.559Z,24.13
2019-03-02T05:25:02.594Z,23.83
2019-03-02T05:27:15.371Z,31.47
2019-03-02T05:29:38.436Z,27.97
2019-03-02T05:32:01.454Z,26.40
2019-03-02T05:34:24.449Z,22.93
2019-03-02T05:36:47.454Z,26.10
2019-03-02T05:39:13.848Z,31.93
2019-03-02T05:41:27.728Z,30.10
2019-03-02T05:43:43.308Z,24.23
2019-03-02T05:45:59.198Z,34.20
2019-03-02T05:48:14.795Z,27.20
2019-03-02T05:50:58.452Z,33.20
2019-03-02T05:53:21.829Z,29.07
2019-03-02T05:55:44.854Z,34.87
2019-03-02T05:58:07.855Z,35.30
2019-03-02T06:00:33.877Z,32.63
2019-03-02T06:02:55.915Z,30.83
2019-03-02T06:05:19.246Z,30.87
2019-03-02T06:07:42.715Z,36.00
2019-03-02T06:10:06.049Z,28.70
2019-03-02T06:12:31.184Z,29.17
2019-03-02T06:14:54.176Z,29.40
2019-03-02T06:17:17.266Z,30.47
2019-03-02T06:19:40.277Z,32.57
2019-03-02T06:22:03.468Z,36.07
2019-03-02T06:24:26.479Z,32.67
2019-03-02T06:26:31.792Z,37.70
2019-03-02T06:28:57.883Z,36.53
2019-03-02T06:31:01.202Z,29.67
2019-03-02T06:33:44.154Z,44.47
2019-03-02T06:36:09.920Z,32.30
2019-03-02T06:38:33.184Z,30.50
2019-03-02T06:40:58.057Z,33.40
2019-03-02T06:43:01.940Z,35.07
2019-03-02T06:45:27.368Z,36.03
2019-03-02T06:47:50.383Z,35.57
2019-03-02T06:49:59.050Z,36.97
2019-03-02T06:52:25.033Z,36.97
2019-03-02T06:54:24.829Z,37.30
2019-03-02T06:56:28.812Z,39.23
2019-03-02T06:58:32.615Z,33.47
2019-03-02T07:01:20.851Z,37.90
2019-03-02T07:06:12.822Z,32.87
2019-03-02T07:08:52.886Z,39.33
2019-03-02T07:11:17.642Z,33.10
2019-03-02T07:17:10.599Z,36.60
2019-03-02T07:19:51.912Z,36.47
2019-03-02T07:22:26.943Z,40.47
2019-03-02T07:24:52.113Z,38.93
2019-03-02T07:27:29.617Z,42.90
2019-03-02T07:30:09.903Z,48.23
2019-03-02T07:32:31.652Z,33.70
2019-03-02T07:37:40.521Z,37.20
2019-03-02T07:40:31.028Z,32.43
2019-03-02T07:43:24.493Z,33.67
2019-03-02T07:46:08.160Z,32.23
2019-03-02T07:51:55.081Z,52.03
2019-03-02T08:00:53.548Z,33.60
2019-03-02T08:03:36.653Z,39.33
2019-03-02T08:06:09.143Z,53.97
2019-03-02T08:08:31.274Z,37.07
2019-03-02T08:10:49.420Z,60.27
2019-03-02T08:13:28.148Z,42.00
2019-03-02T08:20:26.122Z,43.67
2019-03-02T08:23:37.320Z,45.40
2019-03-02T08:26:52.866Z,44.27
2019-03-02T08:52:14.421Z,58.00
2019-03-02T09:02:06.449Z,61.43
2019-03-02T09:17:22.052Z,58.33
2019-03-02T09:20:23.166Z,64.07
2019-03-02T09:23:23.169Z,69.00
2019-03-02T09:29:14.287Z,69.10
2019-03-02T09:32:15.113Z,61.40
2019-03-02T09:35:54.907Z,66.53
2019-03-02T09:41:08.914Z,71.07
2019-03-02T09:43:46.172Z,71.63
2019-03-02T09:46:40.900Z,76.50
2019-03-02T09:51:48.334Z,70.47
2019-03-02T09:54:06.359Z,76.40
2019-03-02T09:56:20.728Z,74.50
2019-03-02T10:02:03.495Z,71.53
2019-03-02T10:29:50.739Z,103.20
2019-03-02T11:05:56.664Z,84.90
2019-03-02T11:09:05.635Z,102.17
2019-03-02T11:12:14.141Z,97.40
2019-03-02T11:33:27.497Z,91.93
2019-03-02T11:36:26.768Z,85.20
2019-03-02T11:47:36.516Z,81.40
2019-03-02T11:57:26.351Z,92.00
2019-03-02T12:00:48.655Z,92.50
2019-03-02T12:04:06.514Z,76.60
2019-03-02T12:11:10.469Z,77.77
2019-03-02T12:29:49.572Z,83.77
2019-03-02T12:38:11.725Z,64.10
2019-03-02T12:44:31.592Z,73.13
2019-03-02T12:54:39.204Z,65.73
2019-03-02T13:03:27.250Z,62.23
2019-03-02T13:05:57.572Z,62.30
2019-03-02T13:08:38.743Z,62.90
2019-03-02T13:11:06.956Z,68.83
2019-03-02T13:13:38.536Z,67.87
2019-03-02T13:16:23.879Z,62.70
2019-03-02T13:18:54.345Z,73.83
2019-03-02T13:21:24.619Z,60.77
2019-03-02T13:24:06.873Z,65.27
2019-03-02T13:26:39.402Z,60.57
2019-03-02T13:29:21.534Z,63.87
2019-03-02T13:31:44.592Z,65.00
2019-03-02T13:34:26.912Z,57.23
2019-03-02T13:37:09.046Z,63.20
2019-03-02T13:39:52.537Z,65.87
2019-03-02T13:42:15.742Z,64.73
2019-03-02T13:44:59.407Z,59.13
2019-03-02T13:47:24.940Z,69.00
2019-03-02T13:49:40.631Z,68.77
2019-03-02T13:52:07.461Z,64.90
2019-03-02T13:54:47.422Z,76.70
2019-03-02T13:57:18.568Z,59.30
2019-03-02T13:59:52.866Z,68.40
2019-03-02T14:02:37.963Z,68.33
2019-03-02T14:05:18.857Z,60.90
2019-03-02T14:07:49.124Z,58.23
2019-03-02T14:10:31.285Z,47.93
2019-03-02T14:13:13.450Z,54.47
2019-03-02T14:15:59.538Z,52.07
2019-03-02T14:18:39.421Z,54.87
2019-03-02T14:21:21.516Z,48.00
2019-03-02T14:24:04.059Z,49.10
2019-03-02T14:26:47.379Z,47.73
2019-03-02T14:29:29.440Z,54.40
2019-03-02T14:32:00.246Z,46.10
2019-03-02T14:34:43.802Z,44.53
2019-03-02T14:37:26.196Z,48.57
2019-03-02T14:39:58.507Z,47.33
2019-03-02T14:42:26.689Z,45.70
2019-03-02T14:45:09.739Z,50.40
2019-03-02T14:47:49.524Z,42.00
2019-03-02T14:52:37.968Z,35.37
2019-03-02T14:54:59.156Z,42.33
2019-03-02T14:57:24.713Z,53.67
2019-03-02T15:00:06.100Z,46.70
2019-03-02T15:02:48.969Z,42.10
2019-03-02T15:05:35.027Z,48.73
2019-03-02T15:08:17.124Z,44.07
2019-03-02T15:11:00.378Z,43.10
2019-03-02T15:13:38.867Z,38.23
2019-03-02T15:16:21.447Z,45.10
2019-03-02T15:19:06.486Z,39.50
2019-03-02T15:21:36.555Z,53.53
2019-03-02T15:24:20.465Z,45.50
2019-03-02T15:27:20.219Z,41.03
2019-03-02T15:30:02.167Z,46.50
2019-03-02T15:32:34.808Z,41.20
2019-03-02T15:35:08.748Z,41.20
2019-03-02T15:37:38.562Z,37.13
2019-03-02T15:40:10.349Z,43.27
2019-03-02T15:42:34.716Z,37.47
2019-03-02T15:45:10.019Z,53.60
2019-03-02T15:47:47.393Z,35.50
2019-03-02T15:50:20.705Z,46.90
2019-03-02T15:52:36.180Z,39.67
2019-03-02T15:55:11.291Z,34.90
2019-03-02T15:57:43.907Z,48.60
2019-03-02T16:00:18.000Z,36.13
2019-03-02T16:02:53.373Z,46.50
2019-03-02T16:05:21.051Z,38.40
2019-03-02T16:07:46.868Z,38.27
2019-03-02T16:10:24.394Z,45.53
2019-03-02T16:12:58.870Z,46.03
2019-03-02T16:15:21.831Z,34.63
2019-03-02T16:18:04.005Z,42.40
2019-03-02T16:20:46.648Z,51.03
2019-03-02T16:23:29.211Z,42.30
2019-03-02T16:26:12.977Z,45.30
2019-03-02T16:28:54.855Z,34.63
2019-03-02T16:31:18.053Z,43.37
2019-03-02T16:34:04.429Z,40.00
2019-03-02T16:36:44.359Z,44.80
2019-03-02T16:39:08.181Z,44.80
2019-03-02T16:41:23.914Z,43.73
2019-03-02T16:44:06.073Z,49.23
2019-03-02T16:46:48.225Z,60.97
2019-03-02T16:49:11.441Z,44.93
2019-03-02T16:51:53.128Z,47.63
2019-03-02T16:54:35.404Z,42.00
2019-03-02T16:57:17.522Z,40.73
2019-03-02T16:59:59.680Z,57.03
2019-03-02T17:02:22.756Z,45.57
2019-03-02T17:05:04.952Z,48.10
2019-03-02T17:07:29.537Z,43.87
2019-03-02T17:10:00.372Z,37.80
2019-03-02T17:12:29.669Z,40.60
2019-03-02T17:14:55.829Z,38.80
2019-03-02T17:17:28.795Z,31.37
2019-03-02T17:20:01.323Z,43.13
2019-03-02T17:22:32.050Z,35.30
2019-03-02T17:25:12.587Z,36.03
2019-03-02T17:27:58.224Z,43.87
2019-03-02T17:30:21.382Z,42.17
2019-03-02T17:33:53.301Z,47.57
2019-03-02T17:38:21.763Z,43.60
2019-03-02T17:43:54.427Z,52.80
2019-03-02T17:46:35.633Z,56.93
2019-03-02T17:54:14.671Z,59.70
2019-03-02T17:59:13.267Z,57.27
2019-03-02T18:04:05.940Z,68.03
2019-03-02T18:06:14.560Z,71.00
2019-03-02T18:11:22.265Z,67.47
2019-03-02T18:16:28.972Z,70.70
2019-03-02T18:21:06.546Z,57.43
2019-03-02T18:23:24.428Z,66.53
2019-03-02T18:26:02.045Z,68.87
2019-03-02T18:27:56.835Z,60.27
2019-03-02T18:35:20.356Z,48.70
2019-03-02T18:37:45.277Z,53.63
2019-03-02T18:45:21.169Z,59.93
2019-03-02T18:50:47.951Z,59.87
2019-03-02T18:53:09.155Z,54.60
2019-03-02T18:55:34.126Z,48.73
2019-03-02T18:57:58.420Z,57.83
2019-03-02T19:02:54.421Z,57.90
2019-03-02T19:05:17.594Z,55.37
2019-03-02T19:07:42.379Z,59.33
2019-03-02T19:10:07.812Z,52.57
2019-03-02T19:12:32.187Z,57.70
2019-03-02T19:14:57.770Z,49.37
2019-03-02T19:22:22.858Z,60.80
2019-03-02T19:24:46.008Z,55.10
2019-03-02T19:32:08.154Z,52.87
2019-03-02T19:34:50.470Z,68.47
2019-03-02T19:37:13.711Z,56.83
2019-03-02T19:39:37.089Z,52.33
2019-03-02T19:41:57.832Z,56.53
2019-03-02T19:44:01.858Z,60.93
2019-03-02T19:46:25.120Z,59.77
2019-03-02T19:48:50.592Z,59.47
2019-03-02T19:51:14.169Z,64.90
2019-03-02T19:53:37.451Z,70.90
2019-03-02T19:56:00.796Z,68.97
2019-03-02T19:58:23.851Z,72.10
2019-03-02T20:00:47.034Z,72.17
2019-03-02T20:03:10.528Z,75.67
2019-03-02T20:05:33.740Z,89.30
2019-03-02T20:07:56.881Z,96.13
2019-03-02T20:10:20.068Z,94.63
2019-03-02T20:12:27.265Z,86.77
2019-03-02T20:14:50.484Z,82.53
2019-03-02T20:17:13.827Z,79.17
2019-03-02T20:19:37.012Z,87.33
2019-03-02T20:22:02.107Z,74.63
2019-03-02T20:24:25.549Z,81.50
2019-03-02T20:26:48.733Z,67.53
2019-03-02T20:28:52.814Z,58.73
2019-03-02T20:30:58.835Z,59.63
2019-03-02T20:33:22.216Z,57.00
2019-03-02T20:35:45.645Z,52.47
2019-03-02T20:38:08.784Z,46.83
2019-03-02T20:40:32.056Z,52.27
2019-03-02T20:42:35.900Z,47.57
2019-03-02T20:44:58.997Z,45.70
2019-03-02T20:47:23.901Z,50.33
2019-03-02T20:49:27.792Z,45.67
2019-03-02T20:51:54.149Z,42.77
2019-03-02T20:54:17.219Z,42.47
2019-03-02T20:59:07.472Z,42.43
2019-03-02T21:01:33.368Z,43.87
2019-03-02T21:03:56.533Z,44.87
2019-03-02T21:06:41.631Z,38.50
2019-03-02T21:09:26.103Z,40.23
2019-03-02T21:23:14.748Z,27.23
2019-03-02T21:25:56.885Z,29.20
2019-03-02T21:28:05.476Z,28.33
2019-03-02T21:30:11.803Z,30.10
2019-03-02T21:32:15.848Z,25.13
2019-03-02T21:34:19.963Z,23.03
2019-03-02T21:36:31.070Z,24.50
2019-03-02T21:38:35.143Z,29.60
2019-03-02T21:40:38.996Z,28.53
2019-03-02T21:42:44.444Z,25.80
2019-03-02T21:44:48.314Z,21.03
2019-03-02T21:46:52.153Z,23.97
2019-03-02T21:48:56.228Z,23.30
2019-03-02T21:51:01.012Z,20.60
2019-03-02T21:53:05.335Z,25.07
2019-03-02T21:55:09.339Z,22.03
2019-03-02T21:57:13.639Z,18.90
2019-03-02T21:59:17.451Z,14.63
2019-03-02T22:01:21.240Z,19.73
2019-03-02T22:03:25.114Z,24.50
2019-03-02T22:05:29.051Z,19.13
2019-03-02T22:07:32.874Z,17.97
2019-03-02T22:09:36.675Z,14.00
2019-03-02T22:11:41.976Z,20.03
2019-03-02T22:13:49.620Z,19.83
2019-03-02T22:15:58.952Z,14.00
2019-03-02T22:18:10.095Z,18.53
2019-03-02T22:20:14.147Z,17.27
2019-03-02T22:22:17.967Z,14.73
2019-03-02T22:24:21.774Z,13.57
2019-03-02T22:26:25.567Z,23.97
2019-03-02T22:28:29.436Z,20.50
2019-03-02T22:30:33.223Z,18.07
2019-03-02T22:32:37.027Z,17.37
2019-03-02T22:34:40.821Z,15.20
2019-03-02T22:36:44.679Z,11.27
2019-03-02T22:38:48.739Z,18.67
2019-03-02T22:40:52.840Z,16.33
2019-03-02T22:42:56.900Z,14.20
2019-03-02T22:45:26.092Z,10.73
2019-03-02T22:47:36.543Z,13.03
2019-03-02T22:49:46.309Z,13.20
2019-03-02T22:52:02.538Z,14.53
2019-03-02T22:54:23.920Z,20.13
2019-03-02T22:56:36.050Z,20.97
2019-03-02T22:58:47.354Z,18.37
2019-03-02T23:01:45.095Z,12.93
2019-03-02T23:03:49.322Z,13.87
2019-03-02T23:05:53.610Z,24.90
2019-03-02T23:07:57.481Z,6.60
2019-03-02T23:10:01.254Z,13.20
2019-03-02T23:12:05.183Z,20.50
2019-03-02T23:14:09.043Z,7.60
2019-03-02T23:16:12.890Z,12.13
2019-03-02T23:18:16.678Z,14.20
2019-03-02T23:20:20.562Z,20.63
2019-03-02T23:22:24.749Z,12.40
2019-03-02T23:24:29.114Z,9.87
2019-03-02T23:26:33.328Z,25.93
2019-03-02T23:28:37.254Z,18.60
2019-03-02T23:30:41.201Z,15.03
2019-03-02T23:32:45.143Z,22.70
2019-03-02T23:34:48.937Z,23.17
2019-03-02T23:36:52.743Z,26.47
2019-03-02T23:38:56.615Z,26.00
2019-03-02T23:41:00.425Z,16.30
2019-03-02T23:43:04.483Z,26.63
2019-03-02T23:45:08.427Z,18.50
2019-03-02T23:47:12.220Z,24.27
2019-03-02T23:49:16.023Z,17.23
2019-03-02T23:51:19.943Z,20.30
2019-03-02T23:53:23.750Z,17.57
2019-03-02T23:55:27.543Z,18.13
2019-03-02T23:57:31.591Z,17.10
2019-03-02T23:59:35.396Z,19.13
